Stormwatcher's Retreat Logo




                  Temp     Hi    Low   Out    Dew  Wind  Wind   Wind    Hi    Hi   Wind   Heat    THW   THSW                Rain  Solar   Solar Hi Solar   UV    UV    Hi     Heat    Cool    In     In    In     In     In   In Air          Wind  Wind    ISS   Arc.
  Date    Time     Out   Temp   Temp   Hum    Pt. Speed   Dir    Run Speed   Dir  Chill  Index  Index  Index   Bar    Rain  Rate   Rad.  Energy    Rad.  Index  Dose   UV     D-D     D-D    Temp   Hum    Dew   Heat    EMC Density     ET   Samp   Tx   Recept  Int.
------------------------------------------------------------------------------------------------------------------------------------------------------------------------------------------------------------------------------------------------------------------------
 5/24/22 12:10a   53.3   53.4   53.3    87   49.5   4.0   ENE   0.67   7.0    NE   52.7   53.3   52.7   49.6  30.183  0.00  0.00     0     0.00      0     0.0  0.00   0.0   0.081   0.000   72.6    50   52.9   71.9   9.25  .0742    0.000   202    7    100.0   10 
 5/24/22 12:20a   53.3   53.3   53.2    87   49.5   3.0   ENE   0.50   7.0     E   53.3   53.3   53.3   50.2  30.184  0.00  0.00     0     0.00      0     0.0  0.00   0.0   0.081   0.000   72.6    50   52.9   71.9   9.25  .0742    0.000   202    7    100.0   10 
 5/24/22 12:30a   53.3   53.3   53.2    87   49.5   3.0   ENE   0.50   8.0   NNE   53.3   53.3   53.3   50.2  30.189  0.00  0.00     0     0.00      0     0.0  0.00   0.0   0.081   0.000   72.6    50   52.9   71.9   9.25  .0742    0.000   205    7    100.0   10 
 5/24/22 12:40a   53.5   53.5   53.2    88   50.0   3.0    NE   0.50   5.0   NNE   53.5   53.5   53.5   50.4  30.185  0.00  0.00     0     0.00      0     0.0  0.00   0.0   0.080   0.000   72.5    50   52.8   71.8   9.25  .0742    0.000   204    7    100.0   10 
 5/24/22 12:50a   53.4   53.6   53.4    88   49.9   2.0    NE   0.33   5.0     N   53.4   53.4   53.4   50.3  30.188  0.00  0.00     0     0.00      0     0.0  0.00   0.0   0.081   0.000   72.5    50   52.8   71.8   9.25  .0742    0.000   203    7    100.0   10 
 5/24/22  1:00a   53.5   53.6   53.5    89   50.3   3.0    NE   0.50   8.0     N   53.5   53.6   53.6   50.5  30.185  0.00  0.00     0     0.00      0     0.0  0.00   0.0   0.080   0.000   72.5    50   52.8   71.8   9.25  .0742    0.001   204    7    100.0   10 
 5/24/22  1:10a   53.1   53.4   53.1    89   49.9   2.0    NE   0.33   5.0   NNE   53.1   53.2   53.2   50.1  30.186  0.00  0.00     0     0.00      0     0.0  0.00   0.0   0.083   0.000   72.5    50   52.8   71.8   9.25  .0742    0.000   203    7    100.0   10 
 5/24/22  1:20a   53.2   53.2   53.2    89   50.0   2.0    NE   0.33   5.0   NNE   53.2   53.3   53.3   50.2  30.183  0.00  0.00     0     0.00      0     0.0  0.00   0.0   0.082   0.000   72.5    50   52.8   71.8   9.25  .0742    0.000   204    7    100.0   10 
 5/24/22  1:30a   52.8   53.2   52.8    89   49.6   2.0    NE   0.33   6.0    NE   52.8   52.9   52.9   49.8  30.175  0.00  0.00     0     0.00      0     0.0  0.00   0.0   0.085   0.000   72.4    50   52.7   71.7   9.25  .0742    0.000   202    7    100.0   10 
 5/24/22  1:40a   52.8   52.8   52.7    89   49.6   2.0    NE   0.33   3.0    NE   52.8   52.9   52.9   49.8  30.177  0.00  0.00     0     0.00      0     0.0  0.00   0.0   0.085   0.000   72.3    50   52.6   71.5   9.25  .0742    0.000   204    7    100.0   10 
 5/24/22  1:50a   52.8   52.9   52.7    89   49.6   2.0    NE   0.33   4.0    NE   52.8   52.9   52.9   49.8  30.176  0.00  0.00     0     0.00      0     0.0  0.00   0.0   0.085   0.000   72.3    50   52.6   71.5   9.25  .0742    0.000   203    7    100.0   10 
 5/24/22  2:00a   52.6   52.7   52.6    89   49.4   2.0    NE   0.33   4.0    NE   52.6   52.7   52.7   49.6  30.173  0.00  0.00     0     0.00      0     0.0  0.00   0.0   0.086   0.000   72.3    50   52.6   71.5   9.25  .0742    0.000   203    7    100.0   10 
 5/24/22  2:10a   52.6   52.6   52.5    89   49.4   2.0   ENE   0.33   5.0    NE   52.6   52.7   52.7   49.6  30.171  0.00  0.00     0     0.00      0     0.0  0.00   0.0   0.086   0.000   72.3    50   52.6   71.5   9.25  .0742    0.000   201    7    100.0   10 
 5/24/22  2:20a   52.6   52.6   52.5    89   49.4   2.0    NE   0.33   4.0    NE   52.6   52.7   52.7   49.6  30.172  0.00  0.00     0     0.00      0     0.0  0.00   0.0   0.086   0.000   72.2    50   52.5   71.4   9.25  .0742    0.000   202    7    100.0   10 
 5/24/22  2:30a   52.6   52.6   52.5    88   49.1   1.0   ENE   0.17   4.0   ENE   52.6   52.7   52.7   49.6  30.171  0.00  0.00     0     0.00      0     0.0  0.00   0.0   0.086   0.000   72.2    50   52.5   71.4   9.25  .0742    0.000   204    7    100.0   10 
 5/24/22  2:40a   52.6   52.6   52.6    88   49.1   2.0    NE   0.33   4.0    NE   52.6   52.7   52.7   49.6  30.172  0.00  0.00     0     0.00      0     0.0  0.00   0.0   0.086   0.000   72.2    50   52.5   71.4   9.25  .0742    0.000   201    7    100.0   10 
 5/24/22  2:50a   52.5   52.6   52.5    88   49.0   2.0   ENE   0.33   4.0   ENE   52.5   52.6   52.6   49.5  30.167  0.00  0.00     0     0.00      0     0.0  0.00   0.0   0.087   0.000   72.1    50   52.4   71.2   9.25  .0743    0.000   203    7    100.0   10 
 5/24/22  3:00a   52.6   52.6   52.5    88   49.1   2.0    NE   0.33   4.0    NE   52.6   52.7   52.7   49.6  30.164  0.00  0.00     0     0.00      0     0.0  0.00   0.0   0.086   0.000   72.1    50   52.4   71.2   9.25  .0742    0.000   202    7    100.0   10 
 5/24/22  3:10a   52.5   52.6   52.5    88   49.0   1.0    NE   0.17   4.0    NE   52.5   52.6   52.6   49.5  30.162  0.00  0.00     0     0.00      0     0.0  0.00   0.0   0.087   0.000   72.1    50   52.4   71.2   9.25  .0742    0.000   203    7    100.0   10 
 5/24/22  3:20a   52.4   52.5   52.4    88   48.9   1.0   ENE   0.17   4.0   ENE   52.4   52.5   52.5   49.3  30.162  0.00  0.00     0     0.00      0     0.0  0.00   0.0   0.087   0.000   72.0    50   52.3   71.1   9.25  .0743    0.000   204    7    100.0   10 
 5/24/22  3:30a   52.4   52.4   52.4    88   48.9   1.0   ENE   0.17   3.0   ENE   52.4   52.5   52.5   49.3  30.164  0.00  0.00     0     0.00      0     0.0  0.00   0.0   0.087   0.000   72.0    50   52.3   71.1   9.25  .0743    0.000   202    7    100.0   10 
 5/24/22  3:40a   52.2   52.4   52.2    88   48.8   2.0   ENE   0.33   4.0   ENE   52.2   52.3   52.3   49.1  30.162  0.00  0.00     0     0.00      0     0.0  0.00   0.0   0.089   0.000   72.0    50   52.3   71.1   9.25  .0743    0.000   202    7    100.0   10 
 5/24/22  3:50a   52.0   52.3   52.0    88   48.6   3.0   ENE   0.50   7.0     E   51.9   52.1   52.0   48.8  30.162  0.00  0.00     0     0.00      0     0.0  0.00   0.0   0.090   0.000   71.9    50   52.2   70.9   9.25  .0743    0.000   201    7    100.0   10 
 5/24/22  4:00a   51.7   52.0   51.7    88   48.3   2.0   ENE   0.33   5.0   ENE   51.7   51.8   51.8   48.6  30.162  0.00  0.00     0     0.00      0     0.0  0.00   0.0   0.092   0.000   71.8    50   52.2   70.8   9.25  .0743    0.000   203    7    100.0   10 
 5/24/22  4:10a   51.4   51.7   51.4    88   48.0   2.0     E   0.33   4.0   ESE   51.4   51.5   51.5   48.3  30.155  0.00  0.00     0     0.00      0     0.0  0.00   0.0   0.094   0.000   71.8    50   52.2   70.8   9.25  .0743    0.000   203    7    100.0   10 
 5/24/22  4:20a   50.9   51.4   50.9    88   47.5   2.0     E   0.33   5.0   ENE   50.9   51.0   51.0   47.8  30.154  0.00  0.00     0     0.00      0     0.0  0.00   0.0   0.098   0.000   71.8    50   52.2   70.8   9.25  .0743    0.000   205    7    100.0   10 
 5/24/22  4:30a   50.5   50.9   50.5    89   47.4   3.0     E   0.50   6.0     E   50.3   50.7   50.5   47.3  30.154  0.00  0.00     0     0.00      0     0.0  0.00   0.0   0.101   0.000   71.8    50   52.2   70.8   9.25  .0743    0.000   202    7    100.0   10 
 5/24/22  4:40a   50.2   50.5   50.2    89   47.1   4.0     E   0.67   8.0     E   49.1   50.4   49.3   46.1  30.152  0.00  0.00     0     0.00      0     0.0  0.00   0.0   0.103   0.000   71.7    50   52.1   70.6   9.25  .0743    0.000   204    7    100.0   10 
 5/24/22  4:50a   50.0   50.2   50.0    89   46.9   4.0     E   0.67  11.0    NE   48.9   50.3   49.2   45.9  30.151  0.00  0.00     0     0.00      0     0.0  0.00   0.0   0.104   0.000   71.7    50   52.1   70.6   9.25  .0743    0.000   203    7    100.0   10 
 5/24/22  5:00a   49.8   50.0   49.8    89   46.7   5.0   ENE   0.83  10.0    NE   48.0   50.1   48.3   45.0  30.155  0.00  0.00     0     0.00      0     0.0  0.00   0.0   0.106   0.000   71.6    50   52.0   70.5   9.25  .0743    0.000   204    7    100.0   10 
 5/24/22  5:10a   49.5   49.8   49.5    90   46.7   5.0     E   0.83   9.0   ENE   47.6   49.8   47.9   44.6  30.150  0.00  0.00     0     0.00      0     0.0  0.00   0.0   0.108   0.000   71.6    50   52.0   70.5   9.25  .0743    0.000   201    7    100.0   10 
 5/24/22  5:20a   49.3   49.5   49.3    90   46.5   6.0     E   1.00  11.0     E   46.9   49.6   47.2   43.9  30.148  0.00  0.00     0     0.00      0     0.0  0.00   0.0   0.109   0.000   71.6    50   52.0   70.5   9.25  .0743    0.000   202    7    100.0   10 
 5/24/22  5:30a   49.2   49.3   49.1    91   46.7   6.0   ENE   1.00  11.0     E   46.7   49.5   47.0   43.7  30.146  0.00  0.00     0     0.00      0     0.0  0.00   0.0   0.110   0.000   71.7    50   52.1   70.6   9.25  .0743    0.000   202    7    100.0   10 
 5/24/22  5:40a   48.9   49.1   48.9    91   46.4   5.0   ENE   0.83  11.0     E   46.9   49.2   47.2   44.0  30.142  0.00  0.00     4     0.06      7     0.0  0.00   0.0   0.112   0.000   72.0    50   52.3   71.1   9.25  .0742    0.000   204    7    100.0   10 
 5/24/22  5:50a   48.8   49.0   48.8    91   46.3   5.0     E   0.83  11.0     E   46.8   49.1   47.1   44.0  30.137  0.00  0.00     9     0.13     11     0.0  0.00   0.0   0.113   0.000   72.1    50   52.4   71.2   9.25  .0742    0.000   200    7    100.0   10 
 5/24/22  6:00a   48.9   48.9   48.8    91   46.4   5.0     E   0.83  12.0   ENE   46.9   49.2   47.2   44.2  30.139  0.00  0.00    13     0.19     16     0.0  0.00   0.0   0.112   0.000   72.3    50   52.6   71.5   9.25  .0741    0.000   200    7    100.0   10 
 5/24/22  6:10a   48.9   48.9   48.8    92   46.7   5.0   ENE   0.83   9.0   ENE   46.9   49.3   47.3   44.5  30.137  0.00  0.00    22     0.32     26     0.0  0.00   0.0   0.112   0.000   72.5    50   52.8   71.8   9.25  .0741    0.000   203    7    100.0   10 
 5/24/22  6:20a   48.8   48.9   48.8    92   46.6   5.0   ENE   0.83  10.0     E   46.8   49.2   47.2   44.4  30.137  0.00  0.00    23     0.33     25     0.0  0.00   0.0   0.113   0.000   72.6    50   52.9   71.9   9.25  .0741    0.000   204    7    100.0   10 
 5/24/22  6:30a   48.8   48.8   48.7    92   46.6   4.0     E   0.67  10.0   ESE   47.5   49.2   47.9   45.2  30.138  0.00  0.00    24     0.34     25     0.0  0.00   0.0   0.113   0.000   72.8    50   53.1   72.2   9.25  .0741    0.000   204    7    100.0   10 
 5/24/22  6:40a   48.8   48.8   48.7    92   46.6   5.0     E   0.83  10.0     E   46.8   49.2   47.2   44.5  30.136  0.00  0.00    28     0.40     33     0.0  0.00   0.0   0.113   0.000   72.9    50   53.2   72.4   9.25  .0740    0.000   202    7    100.0   10 
 5/24/22  6:50a   49.0   49.0   48.8    92   46.8   5.0     E   0.83  11.0     E   47.0   49.4   47.4   45.1  30.137  0.00  0.00    43     0.62     47     0.0  0.00   0.0   0.111   0.000   73.0    50   53.3   72.5   9.25  .0740    0.000   203    7    100.0   10 
 5/24/22  7:00a   49.0   49.1   48.9    92   46.8   3.0     E   0.50   8.0   ENE   48.5   49.4   48.9   46.4  30.134  0.00  0.00    36     0.52     40     0.0  0.00   0.0   0.111   0.000   73.1    49   52.8   72.5   9.05  .0740    0.001   203    7    100.0   10 
 5/24/22  7:10a   49.1   49.2   49.0    92   46.9   4.0     E   0.67   8.0   ENE   47.8   49.5   48.2   45.8  30.133  0.00  0.00    40     0.57     42     0.0  0.00   0.0   0.110   0.000   73.1    49   52.8   72.5   9.05  .0740    0.000   203    7    100.0   10 
 5/24/22  7:20a   49.2   49.2   49.1    92   47.0   4.0     E   0.67   8.0   ESE   47.9   49.6   48.3   48.0  30.127  0.00  0.00    38     0.54     39     0.0  0.00   0.0   0.110   0.000   73.1    49   52.8   72.5   9.05  .0740    0.000   204    7    100.0   10 
 5/24/22  7:30a   49.2   49.3   49.2    92   47.0   5.0     E   0.83   9.0     E   47.2   49.6   47.6   47.5  30.131  0.00  0.00    41     0.59     44     0.0  0.00   0.0   0.110   0.000   73.1    50   53.4   72.6   9.25  .0740    0.000   205    7    100.0   10 
 5/24/22  7:40a   49.4   49.4   49.2    92   47.2   6.0     E   1.00  11.0   ENE   47.0   49.8   47.4   48.0  30.139  0.00  0.00    57     0.82     84     0.3  0.02   0.7   0.108   0.000   73.0    50   53.3   72.5   9.25  .0740    0.000   201    7    100.0   10 
 5/24/22  7:50a   50.7   50.7   49.3    93   48.7   4.0     E   0.67   8.0   ENE   49.7   51.0   50.0   59.9  30.146  0.00  0.00   320     4.59    360     0.8  0.06   0.9   0.099   0.000   72.9    50   53.2   72.4   9.25  .0741    0.000   203    7    100.0   10 
 5/24/22  8:00a   52.1   52.1   50.8    92   49.8   3.0     E   0.50   7.0     E   52.0   52.3   52.2   63.5  30.146  0.00  0.00   368     5.28    385     0.9  0.06   1.0   0.090   0.000   72.9    50   53.2   72.4   9.25  .0741    0.003   204    7    100.0   10 
 5/24/22  8:10a   52.8   52.8   52.1    91   50.2   2.0     E   0.33   7.0     E   52.8   53.0   53.0   65.0  30.139  0.00  0.00   400     5.73    455     1.1  0.08   1.2   0.085   0.000   72.9    50   53.2   72.4   9.25  .0740    0.000   205    7    100.0   10 
 5/24/22  8:20a   53.9   53.9   52.9    90   51.0   2.0     E   0.33   7.0   ESE   53.9   54.0   54.0   65.0  30.137  0.00  0.00   394     5.65    584     1.3  0.09   1.4   0.077   0.000   72.9    49   52.6   72.3   9.05  .0741    0.000   204    7    100.0   10 
 5/24/22  8:30a   54.7   54.7   53.9    89   51.5   2.0   ENE   0.33   5.0    SE   54.7   54.8   54.8   62.3  30.136  0.00  0.00   272     3.90    311     1.3  0.09   1.5   0.072   0.000   72.9    49   52.6   72.3   9.05  .0741    0.000   202    7    100.0   10 
 5/24/22  8:40a   54.8   55.0   54.6    87   51.0   2.0   ENE   0.33   4.0    NE   54.8   54.8   54.8   64.2  30.147  0.00  0.00   387     5.55    540     1.6  0.11   1.8   0.071   0.000   72.8    49   52.5   72.1   9.05  .0741    0.000   202    7    100.0   10 
 5/24/22  8:50a   52.0   54.8   52.0    87   48.3   4.0     S   0.67   6.0     S   51.2   52.1   51.3   63.0  30.153  0.00  0.00   489     7.01    564     1.9  0.14   1.9   0.090   0.000   72.9    49   52.6   72.3   9.05  .0741    0.000   205    7    100.0   10 
 5/24/22  9:00a   51.2   52.0   51.1    89   48.1   3.0     S   0.50   6.0   SSE   51.0   51.4   51.2   62.9  30.149  0.00  0.00   516     7.40    633     2.1  0.15   2.2   0.096   0.000   72.9    49   52.6   72.3   9.05  .0741    0.008   202    7    100.0   10 
 5/24/22  9:10a   50.9   51.2   50.9    90   48.1   3.0     S   0.50   5.0   SSE   50.7   51.1   50.9   61.6  30.143  0.00  0.00   505     7.24    628     2.2  0.16   2.3   0.098   0.000   72.9    49   52.6   72.3   9.05  .0741    0.000   202    7    100.0   10 
 5/24/22  9:20a   50.8   51.0   50.7    90   48.0   3.0     S   0.50   5.0     S   50.6   51.0   50.8   58.8  30.141  0.00  0.00   348     4.99    403     2.0  0.14   2.1   0.099   0.000   72.9    49   52.6   72.3   9.05  .0741    0.000   204    7    100.0   10 
 5/24/22  9:30a   50.5   50.8   50.5    91   48.0   3.0     S   0.50   5.0   SSE   50.3   50.8   50.6   56.7  30.139  0.00  0.00   274     3.93    290     1.7  0.12   1.8   0.101   0.000   72.9    49   52.6   72.3   9.05  .0741    0.000   203    7    100.0   10 
 5/24/22  9:40a   50.8   50.8   50.5    91   48.3   3.0     S   0.50   5.0   SSE   50.6   51.1   50.9   57.3  30.141  0.00  0.00   293     4.20    336     1.9  0.14   2.1   0.099   0.000   73.0    49   52.7   72.4   9.05  .0741    0.000   203    7    100.0   10 
 5/24/22  9:50a   51.0   51.0   50.8    91   48.5   3.0     S   0.50   6.0     S   50.8   51.2   51.0   59.0  30.135  0.00  0.00   376     5.39    390     2.3  0.16   2.4   0.097   0.000   73.0    49   52.7   72.4   9.05  .0740    0.000   202    7    100.0   10 
 5/24/22 10:00a   51.1   51.2   51.0    91   48.6   4.0     S   0.67   6.0     S   50.1   51.3   50.3   57.9  30.128  0.00  0.00   364     5.22    371     2.5  0.18   2.8   0.097   0.000   73.0    49   52.7   72.4   9.05  .0740    0.007   202    7    100.0   10 
 5/24/22 10:10a   51.1   51.3   51.1    91   48.6   4.0     S   0.67   6.0     S   50.1   51.3   50.3   59.8  30.124  0.00  0.00   483     6.92    684     3.5  0.25   4.4   0.097   0.000   73.1    49   52.8   72.5   9.05  .0740    0.000   203    7    100.0   10 
 5/24/22 10:20a   51.4   51.4   51.2    92   49.2   4.0     S   0.67   7.0   SSE   50.5   51.7   50.8   60.7  30.129  0.00  0.00   519     7.44    580     3.9  0.28   5.0   0.094   0.000   73.1    49   52.8   72.5   9.05  .0740    0.000   204    7    100.0   10 
 5/24/22 10:30a   51.7   51.7   51.4    92   49.5   3.0     S   0.50   6.0     S   51.6   52.0   51.9   61.3  30.131  0.00  0.00   498     7.14    531     3.5  0.25   3.6   0.092   0.000   73.1    49   52.8   72.5   9.05  .0740    0.000   203    7    100.0   10 
 5/24/22 10:40a   52.0   52.0   51.7    92   49.7   2.0     S   0.33   4.0   SSW   52.0   52.2   52.2   59.2  30.130  0.00  0.00   367     5.26    418     2.9  0.21   3.2   0.090   0.000   73.2    49   52.9   72.7   9.05  .0740    0.000   203    7    100.0   10 
 5/24/22 10:50a   51.9   52.1   51.9    91   49.4   2.0     S   0.33   3.0     S   51.9   52.1   52.1   59.7  30.130  0.00  0.00   404     5.79    418     3.2  0.23   3.3   0.091   0.000   73.2    49   52.9   72.7   9.05  .0740    0.000   204    7    100.0   10 
 5/24/22 11:00a   52.0   52.1   51.8    91   49.5   2.0   SSW   0.33   3.0   SSW   52.0   52.2   52.2   59.2  30.124  0.00  0.00   379     5.43    441     3.4  0.24   4.0   0.090   0.000   73.2    49   52.9   72.7   9.05  .0740    0.009   203    7    100.0   10 
 5/24/22 11:10a   52.0   52.1   51.9    92   49.7   3.0    SW   0.50   4.0    SW   51.9   52.2   52.1   62.7  30.129  0.00  0.00   651     9.33    854     5.1  0.36   6.1   0.090   0.000   73.3    49   53.0   72.8   9.05  .0740    0.000   204    7    100.0   10 
 5/24/22 11:20a   52.3   52.4   52.0    92   50.0   2.0    SW   0.33   3.0   SSW   52.3   52.5   52.5   62.6  30.136  0.00  0.00   594     8.52    786     4.8  0.34   5.9   0.088   0.000   73.3    49   53.0   72.8   9.05  .0740    0.000   203    7    100.0   10 
 5/24/22 11:30a   52.8   52.8   52.3    92   50.5   2.0   SSW   0.33   3.0   SSW   52.8   53.0   53.0   62.8  30.142  0.00  0.00   570     8.17    664     4.9  0.35   5.3   0.085   0.000   73.3    48   52.4   72.7   8.92  .0740    0.000   203    7    100.0   10 
 5/24/22 11:40a   52.9   53.0   52.8    92   50.6   2.0     W   0.33   3.0     W   52.9   53.1   53.1   61.6  30.146  0.00  0.00   478     6.85    501     4.4  0.31   4.5   0.084   0.000   73.2    48   52.3   72.6   8.91  .0741    0.000   204    7    100.0   10 
 5/24/22 11:50a   53.1   53.2   52.9    92   50.8   2.0   WNW   0.33   3.0   WNW   53.1   53.3   53.3   62.8  30.145  0.00  0.00   556     7.97    661     4.9  0.35   5.5   0.083   0.000   73.3    48   52.4   72.7   8.92  .0740    0.000   204    7    100.0   10 
 5/24/22 12:00p   54.5   54.5   53.1    92   52.2   3.0     N   0.50   4.0   NNW   54.5   54.6   54.6   63.2  30.143  0.00  0.00   488     7.00    519     4.6  0.33   4.9   0.073   0.000   73.4    49   53.1   72.9   9.05  .0740    0.011   205    7    100.0   10 
 5/24/22 12:10p   54.4   54.7   54.4    90   51.5   3.0     N   0.50   4.0     N   54.4   54.5   54.5   63.5  30.143  0.00  0.00   520     7.45    527     4.9  0.35   5.1   0.074   0.000   73.5    49   53.2   73.0   9.05  .0740    0.000   202    7    100.0   10 
 5/24/22 12:20p   54.2   54.4   54.1    89   51.0   2.0   WNW   0.33   4.0   WSW   54.2   54.3   54.3   65.0  30.135  0.00  0.00   684     9.81   1035     6.6  0.47   8.0   0.075   0.000   73.5    49   53.2   73.0   9.05  .0740    0.000   201    7    100.0   10 
 5/24/22 12:30p   54.0   54.2   53.6    90   51.1   2.0     W   0.33   4.0   WSW   54.0   54.1   54.1   65.1  30.128  0.00  0.00   733    10.51    914     6.8  0.49   7.6   0.076   0.000   73.6    49   53.3   73.2   9.05  .0739    0.000   201    7    100.0   10 
 5/24/22 12:40p   53.7   54.0   53.7    89   50.5   2.0     W   0.33   4.0     W   53.7   53.8   53.8   64.4  30.125  0.00  0.00   671     9.62    703     6.8  0.49   9.8   0.078   0.000   73.6    49   53.3   73.2   9.05  .0739    0.000   204    7    100.0   10 
 5/24/22 12:50p   54.5   54.5   53.7    89   51.3   3.0   WNW   0.50   4.0     W   54.5   54.6   54.6   65.6  30.124  0.00  0.00   810    11.61   1011     7.5  0.54   8.9   0.073   0.000   73.7    49   53.3   73.3   9.05  .0739    0.000   203    7    100.0   10 
 5/24/22  1:00p   54.2   54.4   54.1    89   51.0   3.0   WSW   0.50   4.0     W   54.2   54.3   54.3   64.4  30.122  0.00  0.00   614     8.80    640     6.8  0.49   8.7   0.075   0.000   73.8    49   53.4   73.4   9.05  .0739    0.014   203    7    100.0   10 
 5/24/22  1:10p   54.3   54.3   54.0    89   51.1   3.0     W   0.50   6.0     W   54.3   54.4   54.4   65.2  30.122  0.00  0.00   700    10.03    791     6.6  0.47   7.2   0.074   0.000   73.9    49   53.5   73.5   9.05  .0739    0.000   203    7    100.0   10 
 5/24/22  1:20p   55.0   55.1   54.3    89   51.8   2.0     W   0.33   4.0     W   55.0   55.1   55.1   66.2  30.117  0.00  0.00   787    11.28   1014     7.4  0.53   8.7   0.069   0.000   74.0    49   53.6   73.6   9.05  .0738    0.000   201    7    100.0   10 
 5/24/22  1:30p   54.9   55.3   54.8    88   51.4   2.0   WSW   0.33   4.0   WNW   54.9   54.9   54.9   65.6  30.109  0.00  0.00   679     9.73    773     6.9  0.49   7.9   0.070   0.000   74.0    48   53.1   73.6   8.93  .0738    0.000   204    7    100.0   10 
 5/24/22  1:40p   55.3   55.4   54.9    88   51.8   2.0    SW   0.33   4.0    SW   55.3   55.3   55.3   66.3  30.105  0.00  0.00   731    10.48    817     7.0  0.50   7.9   0.067   0.000   74.0    49   53.6   73.6   9.05  .0738    0.000   203    7    100.0   10 
 5/24/22  1:50p   55.1   55.4   55.1    88   51.6   3.0   WSW   0.50   4.0   WSW   55.1   55.1   55.1   64.7  30.104  0.00  0.00   574     8.23    703     5.8  0.41   7.2   0.069   0.000   74.2    49   53.8   73.9   9.05  .0738    0.000   204    7    100.0   10 
 5/24/22  2:00p   54.5   55.1   54.5    88   51.0   3.0     W   0.50   4.0   WSW   54.5   54.5   54.5   64.3  30.106  0.00  0.00   586     8.40    744     5.9  0.42   7.2   0.073   0.000   74.2    49   53.8   73.9   9.05  .0738    0.014   203    7    100.0   10 
 5/24/22  2:10p   55.2   55.2   54.5    88   51.7   2.0     W   0.33   4.0     W   55.2   55.2   55.2   66.2  30.099  0.00  0.00   743    10.65    838     6.8  0.49   8.1   0.068   0.000   74.4    49   54.0   74.2   9.05  .0737    0.000   202    7    100.0   10 
 5/24/22  2:20p   55.9   56.1   55.1    86   51.8   2.0    SW   0.33   3.0   SSW   55.9   55.8   55.8   66.8  30.093  0.00  0.00   774    11.10    940     6.8  0.49   7.7   0.063   0.000   74.4    48   53.4   74.1   8.94  .0737    0.000   202    7    100.0   10 
 5/24/22  2:30p   55.7   56.1   55.7    84   50.9   2.0   SSW   0.33   3.0    SW   55.7   55.6   55.6   65.3  30.088  0.00  0.00   581     8.33    701     5.6  0.40   6.2   0.065   0.000   74.4    48   53.4   74.1   8.94  .0737    0.000   204    7    100.0   10 
 5/24/22  2:40p   55.7   55.9   55.6    84   50.9   3.0   SSW   0.50   4.0   SSW   55.7   55.6   55.6   64.4  30.085  0.00  0.00   506     7.25    555     5.4  0.39   7.7   0.065   0.000   74.4    48   53.4   74.1   8.94  .0737    0.000   204    7    100.0   10 
 5/24/22  2:50p   54.9   55.6   54.9    86   50.8   3.0   WSW   0.50   5.0   WSW   54.9   54.8   54.8   61.4  30.089  0.00  0.00   373     5.35    424     3.6  0.26   4.1   0.070   0.000   74.4    47   52.9   74.1   8.75  .0737    0.000   201    7    100.0   10 
 5/24/22  3:00p   55.1   55.1   54.8    87   51.3   2.0   SSW   0.33   3.0    SW   55.1   55.1   55.1   61.7  30.091  0.00  0.00   366     5.25    406     3.5  0.25   3.7   0.069   0.000   74.3    47   52.8   73.9   8.75  .0737    0.011   204    7    100.0   10 
 5/24/22  3:10p   55.9   55.9   55.1    87   52.1   1.0     S   0.17   2.0     S   55.9   55.9   55.9   63.5  30.086  0.00  0.00   416     5.96    480     3.8  0.27   4.3   0.063   0.000   74.4    47   52.9   74.1   8.75  .0737    0.000   204    7    100.0   10 
 5/24/22  3:20p   56.9   57.0   55.9    85   52.4   1.0     S   0.17   2.0     S   56.9   56.8   56.8   65.2  30.082  0.00  0.00   464     6.65    499     4.1  0.29   4.3   0.056   0.000   74.5    48   53.5   74.3   8.94  .0737    0.000   203    7    100.0   10 
 5/24/22  3:30p   57.1   57.2   57.0    83   52.0   1.0   SSW   0.17   2.0   SSW   57.1   56.9   56.9   64.2  30.082  0.00  0.00   398     5.71    439     3.6  0.26   3.9   0.055   0.000   74.6    48   53.6   74.4   8.94  .0737    0.000   204    7    100.0   10 
 5/24/22  3:40p   56.3   57.1   56.3    84   51.5   2.0   WSW   0.33   3.0   SSW   56.3   56.2   56.2   61.8  30.082  0.00  0.00   305     4.37    339     2.7  0.19   3.0   0.060   0.000   74.7    48   53.7   74.5   8.94  .0736    0.000   203    7    100.0   10 
 5/24/22  3:50p   56.2   56.4   56.0    85   51.7   1.0     W   0.17   3.0     W   56.2   56.1   56.1   60.3  30.082  0.00  0.00   239     3.43    251     2.2  0.16   2.2   0.061   0.000   74.7    48   53.7   74.5   8.94  .0736    0.000   205    7    100.0   10 
 5/24/22  4:00p   56.0   56.4   55.9    84   51.2   2.0   WNW   0.33   4.0    NW   56.0   55.9   55.9   60.6  30.089  0.00  0.00   259     3.71    272     2.2  0.16   2.3   0.063   0.000   74.8    49   54.4   74.7   9.05  .0736    0.007   201    7    100.0   10 
 5/24/22  4:10p   56.3   56.3   55.8    85   51.8   1.0   NNW   0.17   3.0    NE   56.3   56.2   56.2   60.9  30.085  0.00  0.00   254     3.64    260     2.1  0.15   2.2   0.060   0.000   74.8    49   54.4   74.7   9.05  .0736    0.000   203    7    100.0   10 
 5/24/22  4:20p   56.6   56.6   56.2    84   51.8   2.0     N   0.33   3.0     N   56.6   56.5   56.5   62.3  30.080  0.00  0.00   295     4.23    327     2.2  0.16   2.4   0.058   0.000   74.8    49   54.4   74.7   9.05  .0736    0.000   202    7    100.0   10 
 5/24/22  4:30p   57.2   57.3   56.6    83   52.1   2.0   WNW   0.33   3.0   WNW   57.2   57.0   57.0   63.9  30.073  0.00  0.00   337     4.83    425     2.4  0.17   2.8   0.054   0.000   74.9    49   54.4   74.9   9.05  .0736    0.000   205    7    100.0   10 
 5/24/22  4:40p   57.2   57.2   57.1    83   52.1   2.0   WNW   0.33   4.0   WNW   57.2   57.0   57.0   66.0  30.070  0.00  0.00   434     6.22    443     2.9  0.21   3.2   0.054   0.000   75.0    49   54.5   75.0   9.05  .0735    0.000   204    7    100.0   10 
 5/24/22  4:50p   57.4   57.5   57.2    83   52.3   3.0     N   0.50   5.0     N   57.4   57.2   57.2   65.2  30.068  0.00  0.00   370     5.30    461     2.5  0.18   2.8   0.053   0.000   75.1    49   54.6   75.1   9.05  .0735    0.000   204    7    100.0   10 
 5/24/22  5:00p   57.3   57.5   57.3    83   52.2   3.0     N   0.50   5.0   NNW   57.3   57.1   57.1   63.7  30.072  0.00  0.00   299     4.29    322     2.0  0.14   2.1   0.053   0.000   75.1    49   54.6   75.1   9.05  .0735    0.007   204    7    100.0   10 
 5/24/22  5:10p   57.1   57.4   57.1    83   52.0   2.0   NNW   0.33   4.0     N   57.1   56.9   56.9   61.7  30.078  0.00  0.00   225     3.23    244     1.4  0.10   1.6   0.055   0.000   75.2    49   54.7   75.2   9.05  .0735    0.000   202    7    100.0   10 
 5/24/22  5:20p   56.7   57.1   56.7    84   51.9   1.0   NNE   0.17   4.0   WNW   56.7   56.6   56.6   61.0  30.080  0.00  0.00   202     2.90    227     1.3  0.09   1.4   0.058   0.000   75.2    49   54.7   75.2   9.05  .0735    0.000   201    7    100.0   10 
 5/24/22  5:30p   56.9   57.0   56.7    84   52.1   1.0     N   0.17   3.0   WNW   56.9   56.8   56.8   62.3  30.077  0.00  0.00   231     3.31    274     1.3  0.09   1.4   0.056   0.000   75.2    49   54.7   75.2   9.05  .0735    0.000   204    7    100.0   10 
 5/24/22  5:40p   56.6   57.0   56.6    84   51.8   1.0   WSW   0.17   2.0     W   56.6   56.5   56.5   62.2  30.076  0.00  0.00   234     3.35    285     1.3  0.09   1.5   0.058   0.000   75.3    50   55.4   75.4   9.24  .0735    0.000   201    7    100.0   10 
 5/24/22  5:50p   56.6   56.7   56.6    84   51.8   1.0   SSW   0.17   4.0   SSE   56.6   56.5   56.5   62.0  30.066  0.00  0.00   217     3.11    239     1.1  0.08   1.2   0.058   0.000   75.3    49   54.8   75.3   9.04  .0735    0.000   204    7    100.0   10 
 5/24/22  6:00p   55.9   56.6   55.9    84   51.1   3.0     S   0.50   5.0     S   55.9   55.8   55.8   60.2  30.069  0.00  0.00   179     2.57    195     0.9  0.06   1.0   0.063   0.000   75.4    49   54.9   75.4   9.04  .0735    0.005   203    7    100.0   10 
 5/24/22  6:10p   55.4   56.0   55.3    86   51.3   3.0   WSW   0.50   6.0     W   55.4   55.3   55.3   59.0  30.073  0.00  0.00   153     2.19    171     0.7  0.05   0.7   0.067   0.000   75.3    49   54.8   75.3   9.04  .0735    0.000   204    7    100.0   10 
 5/24/22  6:20p   55.5   55.5   55.2    87   51.7   2.0   WSW   0.33   3.0    SW   55.5   55.5   55.5   59.4  30.072  0.00  0.00   153     2.19    169     0.6  0.04   0.7   0.066   0.000   75.3    49   54.8   75.3   9.04  .0735    0.000   204    7    100.0   10 
 5/24/22  6:30p   55.7   55.7   55.5    87   51.9   1.0   WSW   0.17   2.0   WSW   55.7   55.7   55.7   59.4  30.069  0.00  0.00   143     2.05    160     0.6  0.04   0.6   0.065   0.000   75.3    49   54.8   75.3   9.04  .0735    0.000   204    7    100.0   10 
 5/24/22  6:40p   55.8   55.9   55.7    87   52.0   1.0     W   0.17   2.0     W   55.8   55.8   55.8   59.3  30.071  0.00  0.00   132     1.89    162     0.5  0.04   0.6   0.064   0.000   75.4    49   54.9   75.4   9.04  .0735    0.000   200    7    100.0   10 
 5/24/22  6:50p   55.9   56.0   55.9    86   51.8   1.0   WNW   0.17   2.0   WNW   55.9   55.8   55.8   58.5  30.071  0.00  0.00   108     1.55    130     0.3  0.02   0.5   0.063   0.000   75.4    49   54.9   75.4   9.04  .0735    0.000   202    7    100.0   10 
 5/24/22  7:00p   56.1   56.1   55.9    86   52.0   0.0   WNW   0.00   1.0   WNW   56.1   56.0   56.0   58.5  30.062  0.00  0.00   103     1.48    114     0.0  0.00   0.0   0.062   0.000   75.4    50   55.5   75.5   9.24  .0734    0.003   201    7    100.0   10 
 5/24/22  7:10p   56.4   56.5   56.1    85   51.9   1.0   SSW   0.17   3.0    SW   56.4   56.3   56.3   59.1  30.058  0.00  0.00   110     1.58    130     0.0  0.00   0.0   0.060   0.000   75.4    50   55.5   75.5   9.24  .0734    0.000   203    7    100.0   10 
 5/24/22  7:20p   55.3   56.4   55.3    86   51.2   4.0     W   0.67   7.0     W   55.0   55.2   54.9   57.1  30.063  0.00  0.00    99     1.42    123     0.0  0.00   0.0   0.067   0.000   75.5    49   55.0   75.5   9.04  .0734    0.000   203    7    100.0   10 
 5/24/22  7:30p   55.2   55.3   55.1    88   51.7   2.0     W   0.33   3.0     W   55.2   55.2   55.2   53.8  30.066  0.00  0.00    66     0.95     79     0.0  0.00   0.0   0.068   0.000   75.4    48   54.3   75.3   8.94  .0735    0.000   203    7    100.0   10 
 5/24/22  7:40p   55.3   55.3   55.2    89   52.1   1.0     W   0.17   2.0     W   55.3   55.4   55.4   53.8  30.069  0.00  0.00    55     0.79     62     0.0  0.00   0.0   0.067   0.000   75.2    48   54.2   75.1   8.95  .0735    0.000   205    7    100.0   10 
 5/24/22  7:50p   55.5   55.6   55.3    89   52.3   0.0     W   0.00   3.0     W   55.5   55.6   55.6   53.6  30.071  0.00  0.00    38     0.54     51     0.0  0.00   0.0   0.066   0.000   74.9    49   54.4   74.9   9.05  .0736    0.000   204    7    100.0   10 
 5/24/22  8:00p   55.4   55.6   55.4    88   51.9   1.0     W   0.17   3.0     W   55.4   55.4   55.4   53.4  30.068  0.00  0.00    38     0.54     40     0.0  0.00   0.0   0.067   0.000   74.8    49   54.4   74.7   9.05  .0736    0.002   203    7    100.0   10 
 5/24/22  8:10p   55.1   55.4   55.1    89   51.9   1.0     W   0.17   2.0     W   55.1   55.2   55.2   52.9  30.070  0.00  0.00    26     0.37     32     0.0  0.00   0.0   0.069   0.000   74.7    49   54.3   74.6   9.05  .0736    0.000   202    7    100.0   10 
 5/24/22  8:20p   55.0   55.1   55.0    89   51.8   0.0     W   0.00   2.0     W   55.0   55.1   55.1   52.6  30.066  0.00  0.00    18     0.26     23     0.0  0.00   0.0   0.069   0.000   74.6    49   54.2   74.5   9.05  .0736    0.000   203    7    100.0   10 
 5/24/22  8:30p   55.0   55.1   55.0    89   51.8   0.0     W   0.00   1.0     W   55.0   55.1   55.1   52.4  30.070  0.00  0.00     9     0.13     11     0.0  0.00   0.0   0.069   0.000   74.6    49   54.2   74.5   9.05  .0736    0.000   203    7    100.0   10 
 5/24/22  8:40p   55.0   55.1   55.0    89   51.8   1.0   SSE   0.17   3.0   SSE   55.0   55.1   55.1   52.3  30.070  0.00  0.00     3     0.04      7     0.0  0.00   0.0   0.069   0.000   74.5    50   54.6   74.4   9.25  .0736    0.000   203    7    100.0   10 
 5/24/22  8:50p   54.9   55.1   54.9    89   51.7   1.0   SSE   0.17   2.0   SSE   54.9   55.0   55.0   52.1  30.070  0.00  0.00     0     0.00      0     0.0  0.00   0.0   0.070   0.000   74.4    50   54.5   74.3   9.25  .0736    0.000   202    7    100.0   10 
 5/24/22  9:00p   54.8   55.0   54.8    89   51.6   0.0   SSE   0.00   1.0   SSE   54.8   54.9   54.9   52.0  30.063  0.00  0.00     0     0.00      0     0.0  0.00   0.0   0.071   0.000   74.4    50   54.5   74.3   9.25  .0736    0.000   205    7    100.0   10 
 5/24/22  9:10p   54.7   54.8   54.7    89   51.5   0.0   SSE   0.00   1.0   SSE   54.7   54.8   54.8   51.9  30.062  0.00  0.00     0     0.00      0     0.0  0.00   0.0   0.072   0.000   74.3    50   54.5   74.1   9.25  .0736    0.000   203    7    100.0   10 
 5/24/22  9:20p   54.6   54.7   54.5    89   51.4   0.0   SSE   0.00   1.0   SSE   54.6   54.7   54.7   51.8  30.062  0.00  0.00     0     0.00      0     0.0  0.00   0.0   0.072   0.000   74.3    50   54.5   74.1   9.25  .0736    0.000   203    7    100.0   10 
 5/24/22  9:30p   54.3   54.6   54.2    89   51.1   1.0    SE   0.17   2.0   SSE   54.3   54.4   54.4   51.5  30.064  0.00  0.00     0     0.00      0     0.0  0.00   0.0   0.074   0.000   74.2    50   54.4   74.0   9.25  .0736    0.000   202    7    100.0   10 
 5/24/22  9:40p   53.9   54.3   53.9    89   50.7   0.0     S   0.00   3.0   ESE   53.9   54.0   54.0   51.1  30.066  0.00  0.00     0     0.00      0     0.0  0.00   0.0   0.077   0.000   74.2    50   54.4   74.0   9.25  .0736    0.000   203    7    100.0   10 
 5/24/22  9:50p   53.5   53.9   53.5    88   50.0   0.0   SSE   0.00   2.0    SE   53.5   53.5   53.5   50.6  30.062  0.00  0.00     0     0.00      0     0.0  0.00   0.0   0.080   0.000   74.2    50   54.4   74.0   9.25  .0736    0.000   203    7    100.0   10 
 5/24/22 10:00p   53.3   53.5   53.3    89   50.1   0.0     E   0.00   3.0     E   53.3   53.4   53.4   50.5  30.061  0.00  0.00     0     0.00      0     0.0  0.00   0.0   0.081   0.000   74.1    50   54.3   73.8   9.25  .0736    0.000   200    7    100.0   10 
 5/24/22 10:10p   53.3   53.3   53.1    88   49.8   0.0   ESE   0.00   4.0   SSE   53.3   53.3   53.3   50.3  30.066  0.00  0.00     0     0.00      0     0.0  0.00   0.0   0.081   0.000   74.0    50   54.2   73.7   9.25  .0737    0.000   203    7    100.0   10 
 5/24/22 10:20p   53.7   53.7   53.3    88   50.2   0.0     S   0.00   4.0     S   53.7   53.7   53.7   50.8  30.069  0.00  0.00     0     0.00      0     0.0  0.00   0.0   0.078   0.000   74.0    50   54.2   73.7   9.25  .0737    0.000   204    7    100.0   10 
 5/24/22 10:30p   53.7   53.8   53.6    87   49.9   0.0     S   0.00   1.0     S   53.7   53.7   53.7   50.7  30.073  0.00  0.00     0     0.00      0     0.0  0.00   0.0   0.078   0.000   74.0    50   54.2   73.7   9.25  .0737    0.000   202    7    100.0   10 
 5/24/22 10:40p   53.8   53.8   53.6    87   50.0   0.0     S   0.00   2.0     S   53.8   53.8   53.8   50.9  30.070  0.00  0.00     0     0.00      0     0.0  0.00   0.0   0.078   0.000   73.9    50   54.1   73.6   9.25  .0737    0.000   204    7    100.0   10 
 5/24/22 10:50p   53.9   53.9   53.8    86   49.8   0.0   SSE   0.00   2.0   SSE   53.9   53.8   53.8   50.8  30.070  0.00  0.00     0     0.00      0     0.0  0.00   0.0   0.077   0.000   73.9    50   54.1   73.6   9.25  .0737    0.000   205    7    100.0   10 
 5/24/22 11:00p   54.1   54.2   53.9    85   49.7   1.0   SSE   0.17   3.0   SSE   54.1   54.0   54.0   51.0  30.069  0.00  0.00     0     0.00      0     0.0  0.00   0.0   0.076   0.000   73.8    50   54.0   73.5   9.25  .0737    0.000   203    7    100.0   10 
 5/24/22 11:10p   54.5   54.6   54.2    84   49.8   0.0   SSE   0.00   3.0   SSE   54.5   54.4   54.4   51.4  30.066  0.00  0.00     0     0.00      0     0.0  0.00   0.0   0.073   0.000   73.8    50   54.0   73.5   9.25  .0737    0.000   204    7    100.0   10 
 5/24/22 11:20p   54.7   54.7   54.5    84   50.0   1.0   SSE   0.17   3.0   SSE   54.7   54.6   54.6   51.6  30.065  0.00  0.00     0     0.00      0     0.0  0.00   0.0   0.072   0.000   73.8    50   54.0   73.5   9.25  .0737    0.000   203    7    100.0   10 
 5/24/22 11:30p   54.7   54.8   54.6    83   49.6   1.0     S   0.17   4.0   SSE   54.7   54.5   54.5   51.5  30.060  0.00  0.00     0     0.00      0     0.0  0.00   0.0   0.072   0.000   73.7    50   53.9   73.3   9.25  .0737    0.000   202    7    100.0   10 
 5/24/22 11:40p   54.5   54.7   54.5    83   49.4   2.0   SSE   0.33   5.0    SE   54.5   54.3   54.3   51.3  30.056  0.00  0.00     0     0.00      0     0.0  0.00   0.0   0.073   0.000   73.7    50   53.9   73.3   9.25  .0737    0.000   202    7    100.0   10 
 5/24/22 11:50p   54.6   54.6   54.5    83   49.5   2.0   SSE   0.33   5.0   SSE   54.6   54.4   54.4   51.4  30.054  0.00  0.00     0     0.00      0     0.0  0.00   0.0   0.072   0.000   73.6    50   53.8   73.2   9.25  .0737    0.000   203    7    100.0   10 
 5/25/22 12:00a   54.7   54.7   54.5    84   50.0   1.0   SSE   0.17   4.0   SSE   54.7   54.6   54.6   51.6  30.052  0.00  0.00     0     0.00      0     0.0  0.00   0.0   0.072   0.000   73.6    50   53.8   73.2   9.25  .0737    0.001   204    7    100.0   10 
 5/25/22 12:10a   54.4   54.7   54.4    84   49.7   1.0   SSE   0.17   4.0     S   54.4   54.3   54.3   51.3  30.057  0.00  0.00     0     0.00      0     0.0  0.00   0.0   0.074   0.000   73.6    50   53.8   73.2   9.25  .0737    0.000   202    7    100.0   10 
 5/25/22 12:20a   54.5   54.6   54.4    85   50.1   1.0     S   0.17   4.0   SSE   54.5   54.4   54.4   51.5  30.059  0.00  0.00     0     0.00      0     0.0  0.00   0.0   0.073   0.000   73.5    50   53.7   73.1   9.25  .0737    0.000   204    7    100.0   10 
 5/25/22 12:30a   54.4   54.5   54.4    85   50.0   1.0     S   0.17   6.0   SSE   54.4   54.3   54.3   51.3  30.061  0.00  0.00     0     0.00      0     0.0  0.00   0.0   0.074   0.000   73.5    50   53.7   73.1   9.25  .0737    0.000   201    7    100.0   10 
 5/25/22 12:40a   54.3   54.5   54.3    84   49.6   2.0     S   0.33   5.0     S   54.3   54.2   54.2   51.2  30.058  0.00  0.00     0     0.00      0     0.0  0.00   0.0   0.074   0.000   73.4    50   53.6   73.0   9.25  .0738    0.000   204    7    100.0   10 
 5/25/22 12:50a   54.1   54.4   54.1    85   49.7   1.0   SSE   0.17   4.0     S   54.1   54.0   54.0   51.0  30.058  0.00  0.00     0     0.00      0     0.0  0.00   0.0   0.076   0.000   73.4    50   53.6   73.0   9.25  .0738    0.000   203    7    100.0   10 
 5/25/22  1:00a   54.1   54.2   54.0    85   49.7   1.0     E   0.17   4.0   SSE   54.1   54.0   54.0   51.0  30.054  0.00  0.00     0     0.00      0     0.0  0.00   0.0   0.076   0.000   73.3    50   53.5   72.9   9.25  .0738    0.001   204    7    100.0   10 
 5/25/22  1:10a   54.1   54.2   54.1    85   49.7   1.0    SE   0.17   3.0   SSE   54.1   54.0   54.0   51.0  30.050  0.00  0.00     0     0.00      0     0.0  0.00   0.0   0.076   0.000   73.3    50   53.5   72.9   9.25  .0738    0.000   204    7    100.0   10 
 5/25/22  1:20a   54.1   54.2   54.1    86   50.0   3.0     S   0.50   7.0     S   54.1   54.0   54.0   51.1  30.049  0.00  0.00     0     0.00      0     0.0  0.00   0.0   0.076   0.000   73.3    50   53.5   72.9   9.25  .0738    0.000   204    7    100.0   10 
 5/25/22  1:30a   53.9   54.1   53.8    86   49.8   4.0     S   0.67   6.0     S   53.4   53.8   53.3   50.3  30.050  0.00  0.00     0     0.00      0     0.0  0.00   0.0   0.077   0.000   73.2    50   53.4   72.7   9.25  .0738    0.000   201    7    100.0   10 
 5/25/22  1:40a   53.8   54.1   53.8    88   50.3   5.0     S   0.83  10.0   SSE   52.7   53.8   52.7   49.8  30.056  0.00  0.00     0     0.00      0     0.0  0.00   0.0   0.078   0.000   73.2    50   53.4   72.7   9.25  .0738    0.000   201    7    100.0   10 
 5/25/22  1:50a   53.5   53.8   53.5    90   50.6   5.0     S   0.83   9.0   SSE   52.3   53.6   52.4   49.5  30.049  0.00  0.00     0     0.00      0     0.0  0.00   0.0   0.080   0.000   73.2    50   53.4   72.7   9.25  .0738    0.000   203    7    100.0   10 
 5/25/22  2:00a   53.1   53.5   53.1    91   50.5   5.0     S   0.83   7.0     S   51.8   53.2   51.9   49.0  30.048  0.00  0.00     0     0.00      0     0.0  0.00   0.0   0.083   0.000   73.1    50   53.4   72.6   9.25  .0738    0.001   205    7    100.0   10 
 5/25/22  2:10a   52.9   53.2   52.9    92   50.6   4.0     S   0.67   6.0   SSE   52.2   53.1   52.4   49.5  30.048  0.00  0.00     0     0.00      0     0.0  0.00   0.0   0.084   0.000   73.1    50   53.4   72.6   9.25  .0738    0.000   204    7    100.0   10 
Email: AdamSPAM@StormwatchersRetreat.com (To send me email remove the word 'SPAM' from my email address.)